createdAt,value
2022-11-15T00:01:19.016Z,2.28
2022-11-15T00:03:48.562Z,1.40
2022-11-15T00:06:16.397Z,1.27
2022-11-15T00:08:44.254Z,3.10
2022-11-15T00:11:14.182Z,1.02
2022-11-15T00:13:42.626Z,1.33
2022-11-15T00:16:11.556Z,1.58
2022-11-15T00:18:40.456Z,1.20
2022-11-15T00:21:13.626Z,1.40
2022-11-15T00:23:41.723Z,1.50
2022-11-15T00:26:14.676Z,1.85
2022-11-15T00:28:43.963Z,1.13
2022-11-15T00:31:16.323Z,1.58
2022-11-15T00:33:46.620Z,2.08
2022-11-15T00:36:15.783Z,1.48
2022-11-15T00:38:44.003Z,2.88
2022-11-15T00:41:11.860Z,1.20
2022-11-15T00:43:40.845Z,1.45
2022-11-15T00:46:09.994Z,1.45
2022-11-15T00:48:38.078Z,1.40
2022-11-15T00:51:06.124Z,1.67
2022-11-15T00:53:35.557Z,2.30
2022-11-15T00:56:03.469Z,1.20
2022-11-15T00:58:31.378Z,1.40
2022-11-15T01:01:08.046Z,1.27
2022-11-15T01:03:36.342Z,3.28
2022-11-15T01:06:05.113Z,4.00
2022-11-15T01:08:33.019Z,1.40
2022-11-15T01:11:05.837Z,1.88
2022-11-15T01:13:36.050Z,1.42
2022-11-15T01:16:10.192Z,1.70
2022-11-15T01:18:38.906Z,1.40
2022-11-15T01:21:09.257Z,1.05
2022-11-15T01:23:37.439Z,1.20
2022-11-15T01:26:11.323Z,1.98
2022-11-15T01:28:42.078Z,1.55
2022-11-15T01:31:16.207Z,1.08
2022-11-15T01:33:44.244Z,1.13
2022-11-15T01:36:16.099Z,1.40
2022-11-15T01:38:44.954Z,1.33
2022-11-15T01:41:20.611Z,1.23
2022-11-15T01:43:49.603Z,1.45
2022-11-15T01:46:30.494Z,1.65
2022-11-15T01:49:05.755Z,1.38
2022-11-15T01:51:35.723Z,1.77
2022-11-15T01:54:08.809Z,1.50
2022-11-15T01:56:48.051Z,1.52
2022-11-15T01:59:16.843Z,1.05
2022-11-15T02:01:45.565Z,1.48
2022-11-15T02:04:19.158Z,1.20
2022-11-15T02:06:50.185Z,1.33
2022-11-15T02:09:19.143Z,1.27
2022-11-15T02:11:50.582Z,1.20
2022-11-15T02:14:22.015Z,1.58
2022-11-15T02:17:01.641Z,1.63
2022-11-15T02:20:13.497Z,0.93
2022-11-15T02:23:01.317Z,1.02
2022-11-15T02:25:58.112Z,1.30
2022-11-15T02:28:46.367Z,1.77
2022-11-15T02:31:28.340Z,1.23
2022-11-15T02:34:10.748Z,1.20
2022-11-15T02:36:49.052Z,2.33
2022-11-15T02:39:25.589Z,1.35
2022-11-15T02:42:02.834Z,2.22
2022-11-15T02:44:39.428Z,1.50
2022-11-15T02:47:16.752Z,1.33
2022-11-15T02:49:50.265Z,1.35
2022-11-15T02:52:19.371Z,1.40
2022-11-15T02:54:56.491Z,1.30
2022-11-15T02:57:41.524Z,1.20
2022-11-15T03:00:12.757Z,1.50
2022-11-15T03:03:14.626Z,1.35
2022-11-15T03:05:54.457Z,1.38
2022-11-15T03:08:33.959Z,1.13
2022-11-15T03:11:11.246Z,1.38
2022-11-15T03:13:51.702Z,1.33
2022-11-15T03:16:29.651Z,1.10
2022-11-15T03:19:08.893Z,1.13
2022-11-15T03:21:41.667Z,1.23
2022-11-15T03:24:10.990Z,1.33
2022-11-15T03:26:43.177Z,1.40
2022-11-15T03:29:17.197Z,2.28
2022-11-15T03:31:51.673Z,1.35
2022-11-15T03:34:29.609Z,1.10
2022-11-15T03:36:58.237Z,1.25
2022-11-15T03:39:27.332Z,1.35
2022-11-15T03:42:11.226Z,1.15
2022-11-15T03:44:48.744Z,1.30
2022-11-15T03:47:23.661Z,1.20
2022-11-15T03:49:58.863Z,1.30
2022-11-15T03:52:27.001Z,1.20
2022-11-15T03:54:58.596Z,1.10
2022-11-15T03:57:26.402Z,1.58
2022-11-15T03:59:54.215Z,1.40
2022-11-15T04:02:22.346Z,1.13
2022-11-15T04:04:50.268Z,1.23
2022-11-15T04:07:19.536Z,1.40
2022-11-15T04:10:06.445Z,1.40
2022-11-15T04:12:37.803Z,1.00
2022-11-15T04:15:09.715Z,1.10
2022-11-15T04:17:41.103Z,1.23
2022-11-15T04:20:30.689Z,1.40
2022-11-15T04:23:19.803Z,1.33
2022-11-15T04:25:51.575Z,3.42
2022-11-15T04:28:20.043Z,1.23
2022-11-15T04:30:48.411Z,1.27
2022-11-15T04:33:16.648Z,1.90
2022-11-15T04:36:05.263Z,1.17
2022-11-15T04:38:34.867Z,1.13
2022-11-15T04:41:03.470Z,1.30
2022-11-15T04:43:32.268Z,1.10
2022-11-15T04:46:00.405Z,1.05
2022-11-15T04:48:28.235Z,0.93
2022-11-15T04:50:56.018Z,1.23
2022-11-15T04:53:23.921Z,1.08
2022-11-15T04:55:53.102Z,2.47
2022-11-15T04:58:20.932Z,1.10
2022-11-15T05:00:48.856Z,1.15
2022-11-15T05:03:34.611Z,1.10
2022-11-15T05:06:02.845Z,1.20
2022-11-15T05:08:30.733Z,1.30
2022-11-15T05:10:59.951Z,1.08
2022-11-15T05:13:27.802Z,1.10
2022-11-15T05:15:55.606Z,1.63
2022-11-15T05:18:23.922Z,1.48
2022-11-15T05:20:51.841Z,1.13
2022-11-15T05:23:19.705Z,1.48
2022-11-15T05:25:47.501Z,1.10
2022-11-15T05:28:16.767Z,1.00
2022-11-15T05:30:44.823Z,1.30
2022-11-15T05:33:13.187Z,1.27
2022-11-15T05:35:45.026Z,1.67
2022-11-15T05:38:12.825Z,1.27
2022-11-15T05:40:40.660Z,1.10
2022-11-15T05:43:08.621Z,1.00
2022-11-15T05:45:39.050Z,1.50
2022-11-15T05:48:10.788Z,1.20
2022-11-15T05:50:43.178Z,1.10
2022-11-15T05:53:13.041Z,1.40
2022-11-15T05:55:42.601Z,1.10
2022-11-15T05:58:10.562Z,1.05
2022-11-15T06:00:39.908Z,1.10
2022-11-15T06:03:07.815Z,0.95
2022-11-15T06:05:35.569Z,0.90
2022-11-15T06:08:03.398Z,1.67
2022-11-15T06:10:31.208Z,1.33
2022-11-15T06:13:00.149Z,1.00
2022-11-15T06:15:28.066Z,1.17
2022-11-15T06:18:00.548Z,1.23
2022-11-15T06:20:30.384Z,1.10
2022-11-15T06:23:02.132Z,1.40
2022-11-15T06:25:31.636Z,1.30
2022-11-15T06:28:01.002Z,1.10
2022-11-15T06:30:29.344Z,1.17
2022-11-15T06:33:07.085Z,1.20
2022-11-15T06:35:36.529Z,0.98
2022-11-15T06:38:06.801Z,1.30
2022-11-15T06:40:37.124Z,1.40
2022-11-15T06:43:05.854Z,0.98
2022-11-15T06:45:34.144Z,1.50
2022-11-15T06:48:02.032Z,1.30
2022-11-15T06:50:31.261Z,0.95
2022-11-15T06:53:06.184Z,1.00
2022-11-15T06:55:33.997Z,1.17
2022-11-15T06:58:01.812Z,1.88
2022-11-15T07:00:29.701Z,1.05
2022-11-15T07:03:01.263Z,2.15
2022-11-15T07:05:31.118Z,1.67
2022-11-15T07:08:00.498Z,1.52
2022-11-15T07:10:29.341Z,1.13
2022-11-15T07:12:58.528Z,1.55
2022-11-15T07:15:28.222Z,1.40
2022-11-15T07:18:03.175Z,1.20
2022-11-15T07:20:32.365Z,2.20
2022-11-15T07:23:03.092Z,2.45
2022-11-15T07:25:31.371Z,2.00
2022-11-15T07:28:00.321Z,2.58
2022-11-15T07:30:29.474Z,3.15
2022-11-15T07:32:57.902Z,2.70
2022-11-15T07:35:26.674Z,3.03
2022-11-15T07:38:01.907Z,2.80
2022-11-15T07:40:32.662Z,2.42
2022-11-15T07:43:04.775Z,2.38
2022-11-15T07:45:34.465Z,2.83
2022-11-15T07:48:02.770Z,4.25
2022-11-15T07:50:32.191Z,2.72
2022-11-15T07:53:02.064Z,2.72
2022-11-15T07:55:31.194Z,2.60
2022-11-15T07:58:04.594Z,2.35
2022-11-15T08:00:33.324Z,3.40
2022-11-15T08:03:05.822Z,3.95
2022-11-15T08:05:34.316Z,2.22
2022-11-15T08:08:04.652Z,1.95
2022-11-15T08:10:36.431Z,1.98
2022-11-15T08:13:11.241Z,1.98
2022-11-15T08:18:13.605Z,3.35
2022-11-15T08:20:42.253Z,3.40
2022-11-15T08:23:13.948Z,2.28
2022-11-15T08:25:41.972Z,1.73
2022-11-15T08:28:13.040Z,2.08
2022-11-15T08:30:46.385Z,1.73
2022-11-15T08:33:16.289Z,1.38
2022-11-15T08:35:45.879Z,3.25
2022-11-15T08:38:15.097Z,2.22
2022-11-15T08:40:42.903Z,1.55
2022-11-15T08:43:10.967Z,3.65
2022-11-15T08:45:38.737Z,2.10
2022-11-15T08:48:06.972Z,2.03
2022-11-15T08:50:34.929Z,2.53
2022-11-15T08:53:08.154Z,1.80
2022-11-15T08:55:39.378Z,2.03
2022-11-15T08:58:07.280Z,1.92
2022-11-15T09:00:35.923Z,4.07
2022-11-15T09:03:06.711Z,1.42
2022-11-15T09:05:34.766Z,1.95
2022-11-15T09:08:18.786Z,1.73
2022-11-15T09:10:52.016Z,3.05
2022-11-15T09:13:19.963Z,1.73
2022-11-15T09:15:47.847Z,1.60
2022-11-15T09:18:15.841Z,1.52
2022-11-15T09:20:43.628Z,1.42
2022-11-15T09:23:11.498Z,2.10
2022-11-15T09:25:39.288Z,1.55
2022-11-15T09:28:10.367Z,1.60
2022-11-15T09:30:38.171Z,1.48
2022-11-15T09:33:09.921Z,1.40
2022-11-15T09:35:37.982Z,1.42
2022-11-15T09:38:06.510Z,2.28
2022-11-15T09:40:38.664Z,1.70
2022-11-15T09:43:27.818Z,1.48
2022-11-15T09:46:09.440Z,1.27
2022-11-15T09:48:51.933Z,1.70
2022-11-15T09:51:29.882Z,2.55
2022-11-15T09:57:08.420Z,1.67
2022-11-15T10:00:30.787Z,1.90
2022-11-15T10:03:13.063Z,1.30
2022-11-15T10:05:44.310Z,2.97
2022-11-15T10:08:36.394Z,2.92
2022-11-15T10:11:36.260Z,1.40
2022-11-15T10:14:02.855Z,2.03
2022-11-15T10:17:09.699Z,1.10
2022-11-15T10:19:53.065Z,1.20
2022-11-15T10:22:29.987Z,1.25
2022-11-15T10:25:20.202Z,1.30
2022-11-15T10:27:56.802Z,2.20
2022-11-15T10:30:31.512Z,1.20
2022-11-15T10:33:13.294Z,1.40
2022-11-15T10:35:41.108Z,1.88
2022-11-15T10:38:11.289Z,1.42
2022-11-15T10:40:41.967Z,1.30
2022-11-15T10:43:20.249Z,0.80
2022-11-15T10:45:50.876Z,1.30
2022-11-15T10:48:29.348Z,1.13
2022-11-15T10:50:58.061Z,1.33
2022-11-15T10:53:40.661Z,0.90
2022-11-15T10:56:14.049Z,1.27
2022-11-15T10:58:46.273Z,0.98
2022-11-15T11:01:21.615Z,0.98
2022-11-15T11:04:03.364Z,1.10
2022-11-15T11:06:32.459Z,1.30
2022-11-15T11:09:02.935Z,1.25
2022-11-15T11:11:50.676Z,1.33
2022-11-15T11:14:24.388Z,2.05
2022-11-15T11:16:57.181Z,1.30
2022-11-15T11:19:53.084Z,0.90
2022-11-15T11:22:30.936Z,0.93
2022-11-15T11:25:18.490Z,1.10
2022-11-15T11:28:02.384Z,1.63
2022-11-15T11:30:52.537Z,1.27
2022-11-15T11:33:29.071Z,1.33
2022-11-15T11:36:13.765Z,2.83
2022-11-15T11:38:59.446Z,1.40
2022-11-15T11:41:51.011Z,1.20
2022-11-15T11:44:34.009Z,1.05
2022-11-15T11:47:06.111Z,0.98
2022-11-15T11:49:42.975Z,1.05
2022-11-15T11:52:18.964Z,0.73
2022-11-15T11:55:03.554Z,0.80
2022-11-15T11:57:44.575Z,1.40
2022-11-15T12:00:21.481Z,1.20
2022-11-15T12:03:05.923Z,1.10
2022-11-15T12:05:39.678Z,1.25
2022-11-15T12:08:37.943Z,1.65
2022-11-15T12:11:16.594Z,0.90
2022-11-15T12:13:46.737Z,0.80
2022-11-15T12:16:22.125Z,1.00
2022-11-15T12:18:54.843Z,1.33
2022-11-15T12:21:36.382Z,1.00
2022-11-15T12:24:14.010Z,0.88
2022-11-15T12:26:49.761Z,0.90
2022-11-15T12:29:25.750Z,0.88
2022-11-15T12:32:00.847Z,1.13
2022-11-15T12:34:49.902Z,1.27
2022-11-15T12:37:50.629Z,1.38
2022-11-15T12:40:33.178Z,1.35
2022-11-15T12:43:06.966Z,1.10
2022-11-15T12:45:37.701Z,1.10
2022-11-15T12:48:54.245Z,0.98
2022-11-15T12:51:44.742Z,1.30
2022-11-15T12:54:59.683Z,2.45
2022-11-15T12:57:41.212Z,0.95
2022-11-15T13:00:48.089Z,2.05
2022-11-15T13:03:30.540Z,1.05
2022-11-15T13:06:42.448Z,2.25
2022-11-15T13:09:57.000Z,1.02
2022-11-15T13:13:10.318Z,0.93
2022-11-15T13:16:01.314Z,1.58
2022-11-15T13:21:40.259Z,1.20
2022-11-15T13:24:17.786Z,1.15
2022-11-15T13:26:47.915Z,1.20
2022-11-15T13:29:21.624Z,1.05
2022-11-15T13:31:50.401Z,3.33
2022-11-15T13:34:50.668Z,2.10
2022-11-15T13:37:33.395Z,0.80
2022-11-15T13:40:22.986Z,2.15
2022-11-15T13:42:52.473Z,0.80
2022-11-15T13:45:21.735Z,1.38
2022-11-15T13:48:00.242Z,3.28
2022-11-15T13:50:35.777Z,1.13
2022-11-15T13:53:06.770Z,1.23
2022-11-15T13:55:35.355Z,1.02
2022-11-15T13:58:07.636Z,0.82
2022-11-15T14:00:41.185Z,0.90
2022-11-15T14:03:20.151Z,1.08
2022-11-15T14:06:07.650Z,1.60
2022-11-15T14:08:36.804Z,1.27
2022-11-15T14:11:12.910Z,1.00
2022-11-15T14:13:42.597Z,1.20
2022-11-15T14:16:18.289Z,0.80
2022-11-15T14:18:50.349Z,0.88
2022-11-15T14:21:19.921Z,0.82
2022-11-15T14:23:51.129Z,0.90
2022-11-15T14:26:32.209Z,0.60
2022-11-15T14:29:25.236Z,1.60
2022-11-15T14:31:53.346Z,0.70
2022-11-15T14:34:23.141Z,2.88
2022-11-15T14:36:51.032Z,0.90
2022-11-15T14:39:18.830Z,1.92
2022-11-15T14:41:46.629Z,1.05
2022-11-15T14:44:19.413Z,2.38
2022-11-15T14:46:47.549Z,1.10
2022-11-15T14:49:17.208Z,1.00
2022-11-15T14:51:45.016Z,1.05
2022-11-15T14:54:12.967Z,1.10
2022-11-15T14:56:41.471Z,0.70
2022-11-15T14:59:09.306Z,3.22
2022-11-15T15:01:38.536Z,0.88
2022-11-15T15:04:06.351Z,0.98
2022-11-15T15:06:34.202Z,0.85
2022-11-15T15:09:02.023Z,1.13
2022-11-15T15:11:33.247Z,1.00
2022-11-15T15:14:02.411Z,0.82
2022-11-15T15:16:30.275Z,11.70
2022-11-15T15:18:59.431Z,0.90
2022-11-15T15:21:35.289Z,0.80
2022-11-15T15:24:05.185Z,1.30
2022-11-15T15:26:36.071Z,0.98
2022-11-15T15:31:33.679Z,1.20
2022-11-15T15:34:02.989Z,1.00
2022-11-15T15:36:30.816Z,0.73
2022-11-15T15:38:58.658Z,0.80
2022-11-15T15:41:26.660Z,3.13
2022-11-15T15:43:54.426Z,0.65
2022-11-15T15:46:22.590Z,0.90
2022-11-15T15:48:50.446Z,0.70
2022-11-15T15:51:20.676Z,0.75
2022-11-15T15:53:49.523Z,0.70
2022-11-15T15:56:17.344Z,1.88
2022-11-15T15:58:45.287Z,0.85
2022-11-15T16:01:13.212Z,0.90
2022-11-15T16:03:41.067Z,0.90
2022-11-15T16:06:45.115Z,1.00
2022-11-15T16:09:17.319Z,0.70
2022-11-15T16:11:48.169Z,0.75
2022-11-15T16:14:16.013Z,0.82
2022-11-15T16:16:43.823Z,0.77
2022-11-15T16:19:13.569Z,0.90
2022-11-15T16:21:42.736Z,1.98
2022-11-15T16:24:10.704Z,0.90
2022-11-15T16:26:40.014Z,0.70
2022-11-15T16:29:10.135Z,0.70
2022-11-15T16:31:38.174Z,0.82
2022-11-15T16:34:07.159Z,1.08
2022-11-15T16:36:36.664Z,0.80
2022-11-15T16:39:06.195Z,1.13
2022-11-15T16:41:34.644Z,1.23
2022-11-15T16:44:02.662Z,0.82
2022-11-15T16:46:30.619Z,0.90
2022-11-15T16:48:59.279Z,1.23
2022-11-15T16:51:27.121Z,1.00
2022-11-15T16:53:54.931Z,0.77
2022-11-15T16:56:28.372Z,0.90
2022-11-15T16:58:58.518Z,1.00
2022-11-15T17:01:29.252Z,0.95
2022-11-15T17:03:57.791Z,0.70
2022-11-15T17:06:28.518Z,1.02
2022-11-15T17:08:56.686Z,1.35
2022-11-15T17:11:27.652Z,0.90
2022-11-15T17:16:28.074Z,0.85
2022-11-15T17:18:56.034Z,1.00
2022-11-15T17:21:24.390Z,1.10
2022-11-15T17:23:53.368Z,1.15
2022-11-15T17:26:33.006Z,1.08
2022-11-15T17:29:04.462Z,1.10
2022-11-15T17:31:33.827Z,1.30
2022-11-15T17:34:02.711Z,1.17
2022-11-15T17:36:31.171Z,1.00
2022-11-15T17:39:00.241Z,1.20
2022-11-15T17:41:29.328Z,1.10
2022-11-15T17:43:59.231Z,0.90
2022-11-15T17:46:30.059Z,1.20
2022-11-15T17:48:59.098Z,0.80
2022-11-15T17:51:27.264Z,1.30
2022-11-15T17:53:57.485Z,1.13
2022-11-15T17:56:29.708Z,0.88
2022-11-15T17:58:59.991Z,1.20
2022-11-15T18:01:31.804Z,2.20
2022-11-15T18:04:02.433Z,1.73
2022-11-15T18:06:36.961Z,2.85
2022-11-15T18:09:08.231Z,1.15
2022-11-15T18:11:39.546Z,3.45
2022-11-15T18:14:11.470Z,1.10
2022-11-15T18:16:41.124Z,5.10
2022-11-15T18:19:13.217Z,0.88
2022-11-15T18:21:57.519Z,1.27
2022-11-15T18:24:27.303Z,1.38
2022-11-15T18:26:55.354Z,1.23
2022-11-15T18:29:24.498Z,3.40
2022-11-15T18:31:56.053Z,0.90
2022-11-15T18:34:25.433Z,1.55
2022-11-15T18:36:54.420Z,2.88
2022-11-15T18:39:22.419Z,2.10
2022-11-15T18:41:51.213Z,2.70
2022-11-15T18:44:19.421Z,1.05
2022-11-15T18:46:47.340Z,1.15
2022-11-15T18:49:19.747Z,2.08
2022-11-15T18:51:48.406Z,1.33
2022-11-15T18:54:18.094Z,1.13
2022-11-15T18:56:46.938Z,1.30
2022-11-15T18:59:16.310Z,2.42
2022-11-15T19:01:47.711Z,0.93
2022-11-15T19:04:19.573Z,0.80
2022-11-15T19:06:50.324Z,1.17
2022-11-15T19:09:20.233Z,1.27
2022-11-15T19:11:52.578Z,1.15
2022-11-15T19:14:24.027Z,1.33
2022-11-15T19:16:53.101Z,4.85
2022-11-15T19:19:24.951Z,3.03
2022-11-15T19:21:53.573Z,1.27
2022-11-15T19:24:21.599Z,5.90
2022-11-15T19:26:49.454Z,0.95
2022-11-15T19:29:18.159Z,2.95
2022-11-15T19:31:48.504Z,1.73
2022-11-15T19:34:16.525Z,1.33
2022-11-15T19:36:46.929Z,1.45
2022-11-15T19:39:18.470Z,2.83
2022-11-15T19:41:47.123Z,1.30
2022-11-15T19:44:15.797Z,1.75
2022-11-15T19:46:44.248Z,1.30
2022-11-15T19:49:12.253Z,2.65
2022-11-15T19:51:42.420Z,6.00
2022-11-15T19:54:11.990Z,1.00
2022-11-15T19:56:40.780Z,2.38
2022-11-15T19:59:11.531Z,1.83
2022-11-15T20:01:39.820Z,1.92
2022-11-15T20:04:10.021Z,2.97
2022-11-15T20:06:42.341Z,3.30
2022-11-15T20:09:15.942Z,4.45
2022-11-15T20:11:44.069Z,7.28
2022-11-15T20:14:13.082Z,10.00
2022-11-15T20:16:41.268Z,13.32
2022-11-15T20:19:09.575Z,14.95
2022-11-15T20:21:37.513Z,14.32
2022-11-15T20:24:06.381Z,14.80
2022-11-15T20:26:35.646Z,18.95
2022-11-15T20:29:03.857Z,15.25
2022-11-15T20:31:32.634Z,16.08
2022-11-15T20:34:00.936Z,14.05
2022-11-15T20:36:29.283Z,16.30
2022-11-15T20:38:59.367Z,16.02
2022-11-15T20:41:27.754Z,17.17
2022-11-15T20:43:57.397Z,13.73
2022-11-15T20:46:25.242Z,14.05
2022-11-15T20:48:53.083Z,18.38
2022-11-15T20:51:21.549Z,15.43
2022-11-15T20:53:50.425Z,15.50
2022-11-15T20:56:21.232Z,14.80
2022-11-15T20:58:51.172Z,12.55
2022-11-15T21:01:23.693Z,14.52
2022-11-15T21:03:52.752Z,12.77
2022-11-15T21:06:21.139Z,13.50
2022-11-15T21:09:06.931Z,14.32
2022-11-15T21:11:52.504Z,14.15
2022-11-15T21:14:20.661Z,15.93
2022-11-15T21:16:49.792Z,14.07
2022-11-15T21:19:19.058Z,13.82
2022-11-15T21:21:48.421Z,16.25
2022-11-15T21:24:16.379Z,13.73
2022-11-15T21:26:44.227Z,17.65
2022-11-15T21:29:17.249Z,12.77
2022-11-15T21:31:45.705Z,12.75
2022-11-15T21:34:15.536Z,11.23
2022-11-15T21:36:43.428Z,14.27
2022-11-15T21:39:11.396Z,13.38
2022-11-15T21:41:39.324Z,15.73
2022-11-15T21:44:07.083Z,15.70
2022-11-15T21:46:37.107Z,13.23
2022-11-15T21:49:06.766Z,14.23
2022-11-15T21:51:36.372Z,12.25
2022-11-15T21:54:04.380Z,13.57
2022-11-15T21:56:32.460Z,12.63
2022-11-15T21:59:00.723Z,11.93
2022-11-15T22:01:47.098Z,13.00
2022-11-15T22:04:15.725Z,10.63
2022-11-15T22:06:44.942Z,13.25
2022-11-15T22:09:12.707Z,12.68
2022-11-15T22:11:40.895Z,11.48
2022-11-15T22:14:09.315Z,11.70
2022-11-15T22:16:37.677Z,11.20
2022-11-15T22:19:05.553Z,11.00
2022-11-15T22:21:33.485Z,12.05
2022-11-15T22:24:02.842Z,12.85
2022-11-15T22:26:30.884Z,12.13
2022-11-15T22:28:58.774Z,21.58
2022-11-15T22:31:27.702Z,16.58
2022-11-15T22:33:55.608Z,11.77
2022-11-15T22:36:26.200Z,10.45
2022-11-15T22:38:58.196Z,8.65
2022-11-15T22:41:27.433Z,12.57
2022-11-15T22:43:55.456Z,12.00
2022-11-15T22:46:23.295Z,22.73
2022-11-15T22:48:51.134Z,10.30
2022-11-15T22:51:19.022Z,12.25
2022-11-15T22:53:46.858Z,10.75
2022-11-15T22:56:20.026Z,10.18
2022-11-15T22:58:49.507Z,12.70
2022-11-15T23:01:22.839Z,10.18
2022-11-15T23:03:50.724Z,10.93
2022-11-15T23:06:18.589Z,11.27
2022-11-15T23:08:46.816Z,11.48
2022-11-15T23:11:32.523Z,13.38
2022-11-15T23:14:01.835Z,8.65
2022-11-15T23:16:35.818Z,9.90
2022-11-15T23:19:07.304Z,12.40
2022-11-15T23:21:55.077Z,10.57
2022-11-15T23:24:23.982Z,10.52
2022-11-15T23:26:55.342Z,11.80
2022-11-15T23:29:26.925Z,9.13
2022-11-15T23:32:14.600Z,7.90
2022-11-15T23:34:44.980Z,11.45
2022-11-15T23:37:16.223Z,9.50
2022-11-15T23:39:44.157Z,13.23
2022-11-15T23:42:19.586Z,12.95
2022-11-15T23:44:50.597Z,13.93
2022-11-15T23:47:18.736Z,10.27
2022-11-15T23:49:46.683Z,9.68
2022-11-15T23:52:15.391Z,9.90
2022-11-15T23:54:43.794Z,8.48
2022-11-15T23:57:12.376Z,9.27
2022-11-15T23:59:40.400Z,9.18
